createdAt,value
2024-01-29T00:00:17.137Z,-0.80
2024-01-29T00:03:29.909Z,-0.81
2024-01-29T00:06:42.510Z,-0.84
2024-01-29T00:09:55.424Z,-0.92
2024-01-29T00:13:07.853Z,-0.90
2024-01-29T00:16:20.583Z,-0.91
2024-01-29T00:19:33.155Z,-0.96
2024-01-29T00:22:46.332Z,-0.96
2024-01-29T00:25:58.752Z,-1.04
2024-01-29T00:29:12.485Z,-1.19
2024-01-29T00:32:25.024Z,-1.12
2024-01-29T00:35:38.294Z,-1.17
2024-01-29T00:38:50.821Z,-1.20
2024-01-29T00:42:03.796Z,-1.21
2024-01-29T00:45:16.255Z,-1.31
2024-01-29T00:48:29.006Z,-1.39
2024-01-29T00:51:41.716Z,-1.26
2024-01-29T00:54:54.414Z,-1.29
2024-01-29T00:58:07.157Z,-1.20
2024-01-29T01:01:19.965Z,-1.19
2024-01-29T01:04:32.690Z,-1.14
2024-01-29T01:07:45.447Z,-1.13
2024-01-29T01:10:57.928Z,-1.10
2024-01-29T01:14:10.639Z,-1.29
2024-01-29T01:17:23.084Z,-1.39
2024-01-29T01:20:36.019Z,-1.70
2024-01-29T01:23:48.390Z,-1.58
2024-01-29T01:27:01.066Z,-1.76
2024-01-29T01:30:13.651Z,-1.73
2024-01-29T01:33:26.352Z,-1.64
2024-01-29T01:36:38.929Z,-1.56
2024-01-29T01:39:54.840Z,-1.55
2024-01-29T01:43:23.260Z,-1.60
2024-01-29T01:46:36.011Z,-1.82
2024-01-29T01:49:49.108Z,-1.78
2024-01-29T01:53:02.014Z,-1.68
2024-01-29T01:56:14.609Z,-1.61
2024-01-29T01:59:27.400Z,-1.59
2024-01-29T02:02:39.729Z,-1.60
2024-01-29T02:05:52.629Z,-1.68
2024-01-29T02:09:06.999Z,-1.65
2024-01-29T02:12:22.199Z,-1.64
2024-01-29T02:15:34.911Z,-1.59
2024-01-29T02:18:47.596Z,-1.69
2024-01-29T02:22:00.200Z,-1.83
2024-01-29T02:25:15.738Z,-1.77
2024-01-29T02:28:29.201Z,-1.72
2024-01-29T02:31:44.304Z,-1.72
2024-01-29T02:34:56.753Z,-1.77
2024-01-29T02:38:09.504Z,-1.72
2024-01-29T02:41:22.378Z,-1.54
2024-01-29T02:44:35.047Z,-1.42
2024-01-29T02:47:47.458Z,-1.34
2024-01-29T02:51:00.135Z,-1.28
2024-01-29T02:54:12.622Z,-1.04
2024-01-29T02:57:25.648Z,-1.04
2024-01-29T03:00:38.242Z,-1.01
2024-01-29T03:03:51.100Z,-0.93
2024-01-29T03:07:03.606Z,-0.89
2024-01-29T03:10:16.490Z,-1.09
2024-01-29T03:13:28.936Z,-0.62
2024-01-29T03:16:41.615Z,-0.82
2024-01-29T03:19:54.131Z,-0.74
2024-01-29T03:23:06.946Z,-0.71
2024-01-29T03:26:19.361Z,-0.83
2024-01-29T03:29:32.473Z,-0.88
2024-01-29T03:32:44.922Z,-0.87
2024-01-29T03:35:57.602Z,-0.88
2024-01-29T03:39:10.011Z,-0.99
2024-01-29T03:42:22.729Z,-1.10
2024-01-29T03:45:35.282Z,-1.06
2024-01-29T03:48:48.172Z,-1.13
2024-01-29T03:52:00.719Z,-1.13
2024-01-29T03:55:13.652Z,-1.12
2024-01-29T03:58:26.234Z,-1.04
2024-01-29T04:01:39.933Z,-1.17
2024-01-29T04:04:53.038Z,-1.19
2024-01-29T04:08:06.093Z,-1.15
2024-01-29T04:11:18.772Z,-1.27
2024-01-29T04:14:31.865Z,-1.25
2024-01-29T04:17:44.622Z,-1.24
2024-01-29T04:20:57.077Z,-1.37
2024-01-29T04:24:13.017Z,-1.28
2024-01-29T04:27:25.438Z,-1.23
2024-01-29T04:30:41.393Z,-1.31
2024-01-29T04:33:53.962Z,-1.35
2024-01-29T04:37:06.748Z,-1.39
2024-01-29T04:40:19.173Z,-1.47
2024-01-29T04:43:31.829Z,-1.35
2024-01-29T04:46:44.216Z,-1.35
2024-01-29T04:49:56.934Z,-1.46
2024-01-29T04:53:13.597Z,-1.53
2024-01-29T04:56:26.291Z,-1.57
2024-01-29T04:59:38.660Z,-1.59
2024-01-29T05:02:51.333Z,-1.69
2024-01-29T05:06:03.905Z,-1.62
2024-01-29T05:09:18.596Z,-1.65
2024-01-29T05:12:32.320Z,-1.78
2024-01-29T05:15:45.197Z,-1.83
2024-01-29T05:18:58.553Z,-1.87
2024-01-29T05:22:11.300Z,-1.86
2024-01-29T05:25:23.733Z,-1.90
2024-01-29T05:28:36.435Z,-2.05
2024-01-29T05:31:48.932Z,-2.07
2024-01-29T05:35:03.035Z,-2.05
2024-01-29T05:38:15.715Z,-2.08
2024-01-29T05:41:29.558Z,-2.15
2024-01-29T05:44:42.537Z,-2.16
2024-01-29T05:47:55.300Z,-2.27
2024-01-29T05:51:07.701Z,-2.23
2024-01-29T05:54:23.307Z,-2.27
2024-01-29T05:57:35.883Z,-2.28
2024-01-29T06:00:48.739Z,-2.34
2024-01-29T06:04:01.591Z,-2.35
2024-01-29T06:07:14.054Z,-2.40
2024-01-29T06:10:26.876Z,-2.46
2024-01-29T06:13:39.994Z,-2.45
2024-01-29T06:16:52.684Z,-2.43
2024-01-29T06:20:16.278Z,-2.43
2024-01-29T06:23:32.510Z,-2.48
2024-01-29T06:26:47.125Z,-2.45
2024-01-29T06:30:01.422Z,-2.46
2024-01-29T06:33:14.025Z,-2.53
2024-01-29T06:36:29.798Z,-2.44
2024-01-29T06:39:42.497Z,-2.06
2024-01-29T06:42:58.913Z,-1.97
2024-01-29T06:46:11.476Z,-1.76
2024-01-29T06:49:32.139Z,-1.93
2024-01-29T06:52:44.753Z,-1.95
2024-01-29T06:56:00.391Z,-1.98
2024-01-29T06:59:13.410Z,-1.99
2024-01-29T07:02:26.171Z,-1.95
2024-01-29T07:05:38.690Z,-1.72
2024-01-29T07:08:51.452Z,-1.43
2024-01-29T07:12:04.070Z,-1.24
2024-01-29T07:15:19.460Z,-1.03
2024-01-29T07:18:31.996Z,-1.13
2024-01-29T07:21:45.103Z,-1.03
2024-01-29T07:24:57.599Z,-0.99
2024-01-29T07:28:13.654Z,-1.00
2024-01-29T07:31:27.388Z,-0.97
2024-01-29T07:34:40.255Z,-0.98
2024-01-29T07:37:53.814Z,-0.89
2024-01-29T07:41:06.575Z,-0.80
2024-01-29T07:44:19.061Z,-0.70
2024-01-29T07:47:31.945Z,-0.61
2024-01-29T07:50:44.353Z,-0.48
2024-01-29T07:53:57.262Z,-0.14
2024-01-29T07:57:09.779Z,0.31
2024-01-29T08:00:22.616Z,0.50
2024-01-29T08:03:35.476Z,0.47
2024-01-29T08:06:48.173Z,0.46
2024-01-29T08:10:02.808Z,0.27
2024-01-29T08:13:15.453Z,0.33
2024-01-29T08:16:28.161Z,0.44
2024-01-29T08:19:40.691Z,0.69
2024-01-29T08:22:53.559Z,0.71
2024-01-29T08:26:06.451Z,0.84
2024-01-29T08:29:19.218Z,1.08
2024-01-29T08:32:31.636Z,1.19
2024-01-29T08:35:44.512Z,1.37
2024-01-29T08:38:57.203Z,1.53
2024-01-29T08:42:10.353Z,1.64
2024-01-29T08:45:22.881Z,1.70
2024-01-29T08:48:35.616Z,1.86
2024-01-29T08:51:48.110Z,1.95
2024-01-29T08:55:00.853Z,2.17
2024-01-29T08:58:13.355Z,2.29
2024-01-29T09:01:26.098Z,2.36
2024-01-29T09:04:38.675Z,2.44
2024-01-29T09:07:52.543Z,2.57
2024-01-29T09:11:05.226Z,2.59
2024-01-29T09:14:17.976Z,2.75
2024-01-29T09:17:30.445Z,2.78
2024-01-29T09:20:43.121Z,2.82
2024-01-29T09:23:55.672Z,3.00
2024-01-29T09:27:08.434Z,3.17
2024-01-29T09:30:20.878Z,3.35
2024-01-29T09:33:34.825Z,3.45
2024-01-29T09:36:47.615Z,3.59
2024-01-29T09:40:03.028Z,3.69
2024-01-29T09:43:17.786Z,3.89
2024-01-29T09:46:30.657Z,4.03
2024-01-29T09:49:47.524Z,4.02
2024-01-29T09:53:00.283Z,4.09
2024-01-29T09:56:12.714Z,4.35
2024-01-29T09:59:25.417Z,4.49
2024-01-29T10:02:37.966Z,4.59
2024-01-29T10:05:50.851Z,4.80
2024-01-29T10:09:03.463Z,4.75
2024-01-29T10:12:23.837Z,4.86
2024-01-29T10:15:36.470Z,4.88
2024-01-29T10:19:01.696Z,4.96
2024-01-29T10:22:16.614Z,4.95
2024-01-29T10:25:30.733Z,4.97
2024-01-29T10:28:43.200Z,4.99
2024-01-29T10:32:00.233Z,5.36
2024-01-29T10:35:13.310Z,5.61
2024-01-29T10:38:26.120Z,5.51
2024-01-29T10:41:38.507Z,5.60
2024-01-29T10:44:51.201Z,5.90
2024-01-29T10:48:10.821Z,5.83
2024-01-29T10:51:23.575Z,5.92
2024-01-29T10:54:36.007Z,6.07
2024-01-29T10:57:48.837Z,6.21
2024-01-29T11:01:01.347Z,6.22
2024-01-29T11:04:14.246Z,6.20
2024-01-29T11:07:26.946Z,6.36
2024-01-29T11:10:39.964Z,6.31
2024-01-29T11:13:52.603Z,6.34
2024-01-29T11:17:05.294Z,6.46
2024-01-29T11:20:19.178Z,6.52
2024-01-29T11:23:44.707Z,6.80
2024-01-29T11:27:07.201Z,6.57
2024-01-29T11:30:21.063Z,6.81
2024-01-29T11:33:34.063Z,6.81
2024-01-29T11:36:52.484Z,6.86
2024-01-29T11:40:05.381Z,6.85
2024-01-29T11:43:21.311Z,7.00
2024-01-29T11:46:33.874Z,7.29
2024-01-29T11:49:46.780Z,6.98
2024-01-29T11:53:05.074Z,7.22
2024-01-29T11:56:19.306Z,7.35
2024-01-29T11:59:31.681Z,6.92
2024-01-29T12:02:45.934Z,7.08
2024-01-29T12:05:58.588Z,7.08
2024-01-29T12:09:10.949Z,7.25
2024-01-29T12:12:24.237Z,7.20
2024-01-29T12:15:36.749Z,7.43
2024-01-29T12:18:51.000Z,7.25
2024-01-29T12:22:03.768Z,7.50
2024-01-29T12:25:16.553Z,7.34
2024-01-29T12:28:29.690Z,7.65
2024-01-29T12:31:43.719Z,7.77
2024-01-29T12:34:56.170Z,7.90
2024-01-29T12:38:09.826Z,7.81
2024-01-29T12:41:22.445Z,7.90
2024-01-29T12:44:35.157Z,7.66
2024-01-29T12:47:47.686Z,8.10
2024-01-29T12:51:00.461Z,8.02
2024-01-29T12:54:13.000Z,7.53
2024-01-29T12:57:25.718Z,8.06
2024-01-29T13:00:38.879Z,7.93
2024-01-29T13:03:51.637Z,8.27
2024-01-29T13:07:04.859Z,8.04
2024-01-29T13:10:17.827Z,8.04
2024-01-29T13:13:30.407Z,8.04
2024-01-29T13:16:43.293Z,8.17
2024-01-29T13:19:56.322Z,8.40
2024-01-29T13:23:13.600Z,7.85
2024-01-29T13:26:33.114Z,8.46
2024-01-29T13:29:45.963Z,8.58
2024-01-29T13:32:58.374Z,8.64
2024-01-29T13:36:11.272Z,8.77
2024-01-29T13:39:23.858Z,8.98
2024-01-29T13:42:37.027Z,8.60
2024-01-29T13:45:49.745Z,8.75
2024-01-29T13:49:02.560Z,9.01
2024-01-29T13:52:15.251Z,9.47
2024-01-29T13:55:27.995Z,9.79
2024-01-29T13:58:40.364Z,9.33
2024-01-29T14:01:53.082Z,9.41
2024-01-29T14:05:06.590Z,9.42
2024-01-29T14:08:19.249Z,9.29
2024-01-29T14:11:31.887Z,9.75
2024-01-29T14:14:47.538Z,10.03
2024-01-29T14:18:00.972Z,10.80
2024-01-29T14:21:13.478Z,11.49
2024-01-29T14:24:26.183Z,10.96
2024-01-29T14:27:38.649Z,10.81
2024-01-29T14:30:51.398Z,9.70
2024-01-29T14:34:05.213Z,9.60
2024-01-29T14:37:18.234Z,9.89
2024-01-29T14:40:30.726Z,9.75
2024-01-29T14:43:43.690Z,9.59
2024-01-29T14:46:56.072Z,8.95
2024-01-29T14:50:08.989Z,8.44
2024-01-29T14:53:21.385Z,7.91
2024-01-29T14:56:40.929Z,8.08
2024-01-29T14:59:53.337Z,8.73
2024-01-29T15:03:06.259Z,9.30
2024-01-29T15:06:22.258Z,9.77
2024-01-29T15:09:34.980Z,9.20
2024-01-29T15:12:47.480Z,9.15
2024-01-29T15:16:00.316Z,8.51
2024-01-29T15:19:12.843Z,8.45
2024-01-29T15:22:25.649Z,7.67
2024-01-29T15:28:52.751Z,7.67
2024-01-29T15:32:05.244Z,7.66
2024-01-29T15:35:18.017Z,7.26
2024-01-29T15:38:30.435Z,6.99
2024-01-29T15:41:43.194Z,6.57
2024-01-29T15:44:55.690Z,6.32
2024-01-29T15:48:09.295Z,6.25
2024-01-29T15:51:24.497Z,5.83
2024-01-29T15:54:38.963Z,5.62
2024-01-29T15:57:51.416Z,5.39
2024-01-29T16:01:05.650Z,5.40
2024-01-29T16:04:18.442Z,4.98
2024-01-29T16:07:31.105Z,4.64
2024-01-29T16:10:46.885Z,4.37
2024-01-29T16:13:59.371Z,4.10
2024-01-29T16:17:12.039Z,4.00
2024-01-29T16:20:24.551Z,3.74
2024-01-29T16:23:37.315Z,3.68
2024-01-29T16:26:50.858Z,3.69
2024-01-29T16:30:03.780Z,3.68
2024-01-29T16:33:16.196Z,3.53
2024-01-29T16:36:28.903Z,3.33
2024-01-29T16:39:42.404Z,3.24
2024-01-29T16:42:55.220Z,3.12
2024-01-29T16:46:10.393Z,3.01
2024-01-29T16:49:23.568Z,2.86
2024-01-29T16:52:36.157Z,2.88
2024-01-29T16:55:48.901Z,2.76
2024-01-29T16:59:02.378Z,2.74
2024-01-29T17:02:19.412Z,2.63
2024-01-29T17:05:32.222Z,2.57
2024-01-29T17:08:45.229Z,2.42
2024-01-29T17:11:57.662Z,2.34
2024-01-29T17:15:11.244Z,2.44
2024-01-29T17:18:23.794Z,2.25
2024-01-29T17:21:36.610Z,2.21
2024-01-29T17:24:49.215Z,2.29
2024-01-29T17:28:02.552Z,2.34
2024-01-29T17:31:15.123Z,2.01
2024-01-29T17:34:31.188Z,2.01
2024-01-29T17:37:43.601Z,1.99
2024-01-29T17:40:56.784Z,1.96
2024-01-29T17:44:09.670Z,1.87
2024-01-29T17:47:22.396Z,1.72
2024-01-29T17:50:34.899Z,1.61
2024-01-29T17:53:47.918Z,1.49
2024-01-29T17:57:00.365Z,1.48
2024-01-29T18:00:14.614Z,1.42
2024-01-29T18:03:28.074Z,1.34
2024-01-29T18:06:50.488Z,1.30
2024-01-29T18:10:05.413Z,1.28
2024-01-29T18:13:17.952Z,1.15
2024-01-29T18:16:30.607Z,1.12
2024-01-29T18:19:43.141Z,1.07
2024-01-29T18:22:55.797Z,1.02
2024-01-29T18:26:08.183Z,1.02
2024-01-29T18:29:20.845Z,0.90
2024-01-29T18:32:33.306Z,0.92
2024-01-29T18:35:46.897Z,0.90
2024-01-29T18:38:59.284Z,0.79
2024-01-29T18:42:13.036Z,0.77
2024-01-29T18:45:25.406Z,0.73
2024-01-29T18:48:38.572Z,0.60
2024-01-29T18:51:54.013Z,0.54
2024-01-29T18:55:09.546Z,0.58
2024-01-29T18:58:22.015Z,0.48
2024-01-29T19:01:35.012Z,0.48
2024-01-29T19:04:47.669Z,0.41
2024-01-29T19:08:00.383Z,0.43
2024-01-29T19:11:15.592Z,0.37
2024-01-29T19:14:28.397Z,0.33
2024-01-29T19:17:40.851Z,0.33
2024-01-29T19:20:57.397Z,0.34
2024-01-29T19:24:10.148Z,0.27
2024-01-29T19:27:22.881Z,0.21
2024-01-29T19:30:38.677Z,0.18
2024-01-29T19:33:51.474Z,0.10
2024-01-29T19:37:05.710Z,0.06
2024-01-29T19:40:19.815Z,-0.01
2024-01-29T19:43:32.347Z,-0.08
2024-01-29T19:46:45.150Z,-0.16
2024-01-29T19:49:58.344Z,-0.17
2024-01-29T19:53:11.600Z,-0.23
2024-01-29T19:56:24.024Z,-0.28
2024-01-29T19:59:36.695Z,-0.29
2024-01-29T20:02:50.325Z,-0.33
2024-01-29T20:06:04.607Z,-0.34
2024-01-29T20:09:17.072Z,-0.39
2024-01-29T20:12:30.548Z,-0.41
2024-01-29T20:15:42.996Z,-0.44
2024-01-29T20:18:55.930Z,-0.38
2024-01-29T20:22:08.593Z,-0.30
2024-01-29T20:25:21.563Z,-0.41
2024-01-29T20:28:34.075Z,-0.44
2024-01-29T20:31:46.888Z,-0.44
2024-01-29T20:34:59.455Z,-0.47
2024-01-29T20:38:12.194Z,-0.55
2024-01-29T20:41:37.381Z,-0.53
2024-01-29T20:44:55.200Z,-0.61
2024-01-29T20:48:08.089Z,-0.67
2024-01-29T20:51:20.896Z,-0.73
2024-01-29T20:54:33.375Z,-0.79
2024-01-29T20:57:46.180Z,-0.78
2024-01-29T21:00:58.701Z,-0.80
2024-01-29T21:04:12.740Z,-0.85
2024-01-29T21:07:25.560Z,-0.89
2024-01-29T21:10:38.700Z,-0.91
2024-01-29T21:13:51.385Z,-0.96
2024-01-29T21:17:04.690Z,-0.99
2024-01-29T21:20:18.007Z,-1.05
2024-01-29T21:23:30.791Z,-1.06
2024-01-29T21:26:43.261Z,-1.14
2024-01-29T21:29:56.035Z,-1.08
2024-01-29T21:33:08.462Z,-1.07
2024-01-29T21:36:21.151Z,-1.11
2024-01-29T21:39:33.734Z,-1.16
2024-01-29T21:42:46.447Z,-1.21
2024-01-29T21:45:58.907Z,-1.27
2024-01-29T21:49:15.717Z,-1.15
2024-01-29T21:52:28.202Z,-1.19
2024-01-29T21:55:41.032Z,-1.24
2024-01-29T21:58:53.520Z,-1.18
2024-01-29T22:02:06.424Z,-1.19
2024-01-29T22:05:19.478Z,-1.21
2024-01-29T22:08:32.426Z,-1.23
2024-01-29T22:11:45.088Z,-1.26
2024-01-29T22:14:57.440Z,-1.26
2024-01-29T22:18:10.504Z,-1.34
2024-01-29T22:21:23.125Z,-1.33
2024-01-29T22:24:35.920Z,-1.28
2024-01-29T22:27:48.364Z,-1.32
2024-01-29T22:31:01.120Z,-1.36
2024-01-29T22:34:13.833Z,-1.32
2024-01-29T22:37:26.707Z,-1.33
2024-01-29T22:40:39.142Z,-1.43
2024-01-29T22:43:51.897Z,-1.40
2024-01-29T22:47:05.214Z,-1.39
2024-01-29T22:50:18.128Z,-1.36
2024-01-29T22:53:30.510Z,-1.43
2024-01-29T22:56:43.265Z,-1.48
2024-01-29T22:59:55.685Z,-1.37
2024-01-29T23:03:08.486Z,-1.40
2024-01-29T23:06:22.959Z,-1.43
2024-01-29T23:09:35.808Z,-1.44
2024-01-29T23:12:49.097Z,-1.54
2024-01-29T23:16:01.806Z,-1.54
2024-01-29T23:19:15.194Z,-1.57
2024-01-29T23:22:27.949Z,-1.64
2024-01-29T23:25:40.555Z,-1.67
2024-01-29T23:28:53.861Z,-1.62
2024-01-29T23:32:06.890Z,-1.64
2024-01-29T23:35:19.557Z,-1.69
2024-01-29T23:38:31.986Z,-1.63
2024-01-29T23:41:44.656Z,-1.64
2024-01-29T23:44:57.029Z,-1.65
2024-01-29T23:48:10.383Z,-1.71
2024-01-29T23:51:22.906Z,-1.61
2024-01-29T23:54:35.795Z,-1.65
2024-01-29T23:57:48.485Z,-1.71
